Rocksprings, Texas
Current Conditions -  °F | °C
As of 3:50 AM on Monday 26 Jan 2015 (Local Time) from KECU Reporting Station
Clear Clear  
Wind Chill:   Ceiling: Unl
Heat Index:   Visibility: 10mi
Dew Point: -2°   Wind: 3mph
Humidity: 46%   Direction: 320°NW
Pressure: 30.28"   Gusts: NA
Location:  30.02°N, 100.21°W
Report Text: KECU 260950Z AUTO 32003KT 10SM CLR 09/M02 A3028 RMK AO2
Loading
Personal Weather Stations






























Interactive Weather Map New forecast layout! Learn more

10-Day Weather Forecast

Advertisements
Track Severe Weather on mobile